Time;durP1;ratioP1;P1;durP2;ratioP2;P2;SDS_P1;SDS_P2;PMS_P1;PMS_P2;Temp;Humidity;BMP_temperature;BMP_pressure;BME280_temperature;BME280_humidity;BME280_pressure;Samples;Min_cycle;Max_cycle;Signal;HPM_P1;HPM_P2
2023/09/17 06:59:24;;;;;;;24.10;18.37;;;;;;;21.20;100.00;100368.06;4978147;28;20234;-81
2023/09/17 07:01:53;;;;;;;21.60;16.47;;;;;;;21.25;99.69;100368.25;4971635;28;20199;-74
2023/09/17 07:04:21;;;;;;;21.80;17.33;;;;;;;21.30;99.11;100365.69;4978727;28;20198;-79
2023/09/17 07:06:51;;;;;;;19.70;16.43;;;;;;;21.40;97.43;100371.41;4979751;28;20219;-73
2023/09/17 07:09:19;;;;;;;21.77;16.20;;;;;;;21.46;96.75;100372.41;4974931;28;20207;-76
2023/09/17 07:11:47;;;;;;;21.37;16.83;;;;;;;21.43;96.64;100366.63;4971299;28;20290;-75
2023/09/17 07:14:16;;;;;;;22.20;15.17;;;;;;;21.47;96.87;100367.81;4969474;28;20244;-76
2023/09/17 07:16:46;;;;;;;16.73;14.63;;;;;;;21.50;96.41;100380.88;4969363;28;20209;-81
2023/09/17 07:19:15;;;;;;;16.60;13.77;;;;;;;21.60;94.85;100375.81;4981598;28;20236;-78
2023/09/17 07:21:43;;;;;;;16.80;13.60;;;;;;;21.64;94.40;100382.41;4977017;28;20218;-75
2023/09/17 07:24:11;;;;;;;15.77;14.07;;;;;;;21.76;92.66;100381.44;4975240;28;20219;-72
2023/09/17 07:26:42;;;;;;;16.70;13.33;;;;;;;21.84;91.56;100374.09;4974972;28;21279;-70
2023/09/17 07:29:11;;;;;;;15.77;13.90;;;;;;;21.95;90.10;100379.59;4976231;28;20215;-81
2023/09/17 07:31:40;;;;;;;17.30;13.43;;;;;;;21.93;90.61;100383.56;4971907;28;20203;-81
2023/09/17 07:34:09;;;;;;;19.17;13.33;;;;;;;21.95;90.67;100386.88;4973152;28;20206;-77
2023/09/17 07:36:37;;;;;;;20.93;13.23;;;;;;;22.09;89.34;100377.59;4972865;28;20219;-77
2023/09/17 07:39:05;;;;;;;19.57;13.40;;;;;;;22.21;87.55;100372.28;4973855;28;20230;-80
2023/09/17 07:41:33;;;;;;;17.07;13.50;;;;;;;22.20;87.69;100376.84;4970734;28;20235;-72
2023/09/17 07:44:01;;;;;;;17.70;13.83;;;;;;;22.29;87.32;100363.84;4970927;28;20215;-75
2023/09/17 07:46:29;;;;;;;19.50;12.50;;;;;;;22.34;86.83;100372.13;4970305;28;20270;-73
2023/09/17 07:49:00;;;;;;;15.37;12.63;;;;;;;22.35;87.41;100379.97;4968371;28;20225;-72
2023/09/17 07:51:30;;;;;;;19.57;12.67;;;;;;;22.47;86.68;100377.34;4969668;28;20643;-79
2023/09/17 07:53:59;;;;;;;18.83;12.20;;;;;;;22.57;85.93;100383.03;4970566;28;20211;-79
2023/09/17 07:56:27;;;;;;;16.53;13.17;;;;;;;22.64;85.51;100381.06;4971772;28;20213;-75
2023/09/17 07:58:55;;;;;;;15.57;12.03;;;;;;;22.69;85.65;100381.19;4968608;28;20239;-78
2023/09/17 08:01:35;;;;;;;15.37;12.60;;;;;;;22.77;85.77;100378.22;4969262;28;20222;-80
2023/09/17 08:04:04;;;;;;;15.17;12.23;;;;;;;22.98;84.50;100384.94;4953116;28;20213;-75
2023/09/17 08:06:34;;;;;;;20.53;12.90;;;;;;;23.02;84.02;100383.44;4968956;28;20286;-78
2023/09/17 08:09:06;;;;;;;17.20;11.80;;;;;;;23.13;83.16;100392.66;4966694;28;20265;-74
2023/09/17 08:11:34;;;;;;;15.43;10.43;;;;;;;23.26;82.67;100390.53;4968636;28;20211;-81
2023/09/17 08:14:02;;;;;;;15.38;10.85;;;;;;;23.42;81.67;100386.31;4967975;28;20405;-83
2023/09/17 08:16:31;;;;;;;14.88;11.27;;;;;;;23.74;79.87;100394.16;4968660;28;20615;-75
2023/09/17 08:18:59;;;;;;;13.63;10.27;;;;;;;24.23;76.22;100399.03;4968255;28;20240;-75
2023/09/17 08:21:30;;;;;;;13.38;10.60;;;;;;;24.95;71.92;100388.53;4970741;28;20211;-82
2023/09/17 08:24:02;;;;;;;11.23;9.63;;;;;;;26.39;66.65;100393.97;4966977;28;20272;-80
2023/09/17 08:26:30;;;;;;;16.58;9.38;;;;;;;28.74;57.04;100390.84;4970114;28;20767;-80
2023/09/17 08:29:00;;;;;;;12.30;9.30;;;;;;;31.25;48.84;100399.75;4966093;28;20216;-83
2023/09/17 08:31:34;;;;;;;10.77;8.77;;;;;;;33.40;43.55;100405.94;4976204;28;20581;-76
2023/09/17 08:34:03;;;;;;;12.20;8.43;;;;;;;35.17;39.49;100390.44;4978086;28;20309;-71
2023/09/17 08:36:32;;;;;;;10.55;7.88;;;;;;;36.01;37.37;100392.38;4978610;28;20226;-71
2023/09/17 08:39:03;;;;;;;10.45;8.30;;;;;;;36.26;36.51;100393.59;4979374;28;20520;-70
2023/09/17 08:41:32;;;;;;;10.68;7.90;;;;;;;37.08;35.25;100401.03;4978222;28;20754;-77
2023/09/17 08:44:04;;;;;;;12.52;7.88;;;;;;;38.22;33.48;100393.72;4975810;28;20218;-80
2023/09/17 08:46:33;;;;;;;9.98;6.97;;;;;;;37.38;34.34;100399.22;4966809;28;20226;-82
2023/09/17 08:49:03;;;;;;;12.40;6.20;;;;;;;38.92;31.71;100397.63;4966153;28;20665;-79
2023/09/17 08:51:36;;;;;;;8.23;6.53;;;;;;;41.03;29.42;100390.38;4967209;28;21075;-79
2023/09/17 08:54:12;;;;;;;11.48;7.15;;;;;;;42.76;26.66;100380.03;4978971;28;20655;-78
2023/09/17 08:56:44;;;;;;;15.35;6.88;;;;;;;44.11;25.26;100376.94;4973137;28;20305;-78
2023/09/17 08:59:20;;;;;;;9.18;7.15;;;;;;;45.47;24.33;100371.88;4974552;28;20199;-79
2023/09/17 09:01:49;;;;;;;11.43;7.80;;;;;;;46.66;23.01;100356.31;4972754;28;20246;-79
2023/09/17 09:04:18;;;;;;;8.55;7.22;;;;;;;47.53;21.81;100350.50;4972006;28;20211;-78
2023/09/17 09:06:47;;;;;;;8.60;6.95;;;;;;;48.77;20.90;100341.78;4971731;28;20202;-71
2023/09/17 09:09:24;;;;;;;9.77;6.57;;;;;;;49.36;19.97;100345.47;4970337;28;20204;-79
2023/09/17 09:11:54;;;;;;;8.43;6.50;;;;;;;48.95;20.33;100336.09;4971993;28;20740;-75
2023/09/17 09:15:05;;;;;;;7.25;6.00;;;;;;;46.41;22.19;100339.34;4978635;28;20222;-70
2023/09/17 09:17:43;;;;;;;16.67;6.78;;;;;;;41.89;27.04;100349.75;4953536;28;21985;-77
2023/09/17 09:20:14;;;;;;;7.32;6.63;;;;;;;39.24;30.46;100351.66;4964920;28;20232;-74
2023/09/17 09:22:57;;;;;;;11.38;6.57;;;;;;;36.99;33.14;100358.75;4972334;28;20680;-77
2023/09/17 09:25:28;;;;;;;7.28;6.32;;;;;;;35.94;35.43;100362.50;4963353;28;20233;-71
2023/09/17 09:27:57;;;;;;;8.05;6.75;;;;;;;35.71;35.73;100352.66;4959820;28;20239;-71
2023/09/17 09:30:37;;;;;;;8.15;6.10;;;;;;;36.40;34.66;100345.44;4959824;28;20265;-76
2023/09/17 09:33:06;;;;;;;11.05;6.32;;;;;;;37.81;32.92;100336.28;4962953;28;20211;-81
2023/09/17 09:35:37;;;;;;;9.35;5.95;;;;;;;39.27;31.11;100336.31;4971589;28;21093;-71
2023/09/17 09:38:28;;;;;;;9.38;5.40;;;;;;;38.57;31.31;100338.09;4963829;28;20261;-80
2023/09/17 09:40:58;;;;;;;7.60;5.47;;;;;;;36.90;33.32;100344.94;4959961;28;20777;-71
2023/09/17 09:43:35;;;;;;;8.57;5.05;;;;;;;34.85;36.74;100346.59;4960289;28;20238;-71
2023/09/17 09:46:06;;;;;;;6.75;5.63;;;;;;;32.96;39.98;100345.91;4963317;28;20642;-76
2023/09/17 09:48:38;;;;;;;9.15;5.75;;;;;;;31.58;43.36;100346.00;4959359;28;20231;-74
2023/09/17 09:51:09;;;;;;;8.70;5.65;;;;;;;30.61;44.68;100337.78;4966832;28;20222;-73
2023/09/17 09:54:11;;;;;;;10.65;5.57;;;;;;;30.35;45.63;100344.47;4961782;28;20206;-74
2023/09/17 09:56:40;;;;;;;11.43;5.55;;;;;;;30.04;46.69;100343.81;4965444;28;20966;-79
2023/09/17 09:59:09;;;;;;;8.40;5.63;;;;;;;29.36;48.45;100340.69;4959587;28;20573;-79
2023/09/17 10:01:39;;;;;;;11.02;5.53;;;;;;;28.91;49.95;100340.69;4961354;28;20229;-77
2023/09/17 10:04:10;;;;;;;8.98;5.80;;;;;;;28.59;51.73;100344.41;4965403;28;20222;-80
2023/09/17 10:06:40;;;;;;;9.32;5.85;;;;;;;28.64;51.11;100344.44;4961345;28;20213;-71
2023/09/17 10:09:10;;;;;;;13.32;6.07;;;;;;;28.62;51.71;100343.88;4958488;28;20694;-75
2023/09/17 10:11:41;;;;;;;15.23;5.68;;;;;;;28.38;51.43;100348.19;4955155;28;20266;-75
2023/09/17 10:14:16;;;;;;;12.07;5.75;;;;;;;28.28;51.34;100339.97;4960451;28;20347;-78
2023/09/17 10:16:57;;;;;;;9.82;6.15;;;;;;;27.98;52.45;100348.81;4956345;28;20757;-78
2023/09/17 10:19:34;;;;;;;8.27;5.43;;;;;;;27.91;52.30;100343.59;4959643;28;20210;-78
2023/09/17 10:22:13;;;;;;;9.85;6.45;;;;;;;27.80;52.30;100335.63;4959270;28;20226;-75
2023/09/17 10:24:43;;;;;;;10.82;6.03;;;;;;;27.73;52.80;100335.88;4960825;28;20214;-76
2023/09/17 10:27:16;;;;;;;8.45;6.07;;;;;;;27.75;53.52;100327.44;4957529;28;20214;-76
2023/09/17 10:29:49;;;;;;;10.90;5.68;;;;;;;27.78;53.45;100326.94;4957923;28;20321;-74
2023/09/17 10:32:28;;;;;;;9.02;5.70;;;;;;;27.72;53.76;100323.34;4957095;28;20836;-78
2023/09/17 10:35:01;;;;;;;7.78;5.35;;;;;;;27.73;53.53;100325.00;4963211;28;20322;-76
2023/09/17 10:37:31;;;;;;;11.75;5.78;;;;;;;27.88;52.70;100316.09;4958340;28;20583;-76
2023/09/17 10:40:01;;;;;;;11.45;6.18;;;;;;;28.05;52.53;100306.63;4952683;28;20309;-78
2023/09/17 10:42:43;;;;;;;13.70;5.68;;;;;;;28.17;51.74;100305.59;4960644;28;20241;-75
2023/09/17 10:45:18;;;;;;;10.20;5.75;;;;;;;28.36;50.93;100306.72;4957017;28;20228;-74
2023/09/17 10:47:51;;;;;;;11.05;5.57;;;;;;;28.42;50.16;100311.09;4959959;28;20198;-72
2023/09/17 10:50:21;;;;;;;9.88;5.45;;;;;;;28.24;51.67;100309.69;4959411;28;20211;-73
2023/09/17 10:52:57;;;;;;;8.93;5.05;;;;;;;28.23;51.24;100312.72;4962918;28;20213;-79
2023/09/17 10:55:29;;;;;;;9.65;5.25;;;;;;;28.24;51.19;100308.88;4962892;28;20213;-72
2023/09/17 10:58:16;;;;;;;9.10;5.03;;;;;;;28.30;50.40;100305.09;4962883;28;20213;-76
2023/09/17 11:03:48;;;;;;;10.80;5.25;;;;;;;28.55;50.15;100305.13;4954562;28;20210;-78
2023/09/17 11:06:27;;;;;;;12.60;4.75;;;;;;;28.53;50.13;100301.84;4961777;28;20211;-75
2023/09/17 11:08:57;;;;;;;8.57;4.78;;;;;;;28.52;50.12;100299.38;4961318;28;20303;-72
2023/09/17 11:11:34;;;;;;;9.77;5.03;;;;;;;28.45;49.75;100294.19;4961333;28;20212;-75
2023/09/17 11:14:05;;;;;;;13.45;4.75;;;;;;;28.58;49.94;100299.16;4953747;28;20626;-78
2023/09/17 11:16:50;;;;;;;9.88;5.50;;;;;;;28.40;50.65;100294.22;4961544;28;20213;-71
2023/09/17 11:19:40;;;;;;;9.38;5.35;;;;;;;28.32;50.98;100290.06;4963891;28;20625;-77
2023/09/17 11:22:14;;;;;;;10.98;5.35;;;;;;;28.38;50.81;100288.19;4962888;28;20321;-76
2023/09/17 11:24:50;;;;;;;11.20;5.30;;;;;;;28.43;51.01;100283.56;4963545;28;20199;-74
2023/09/17 11:30:55;;;;;;;8.60;4.90;;;;;;;29.48;47.74;100289.31;4925488;28;20238;-71
2023/09/17 11:33:33;;;;;;;15.05;4.90;;;;;;;29.57;48.13;100284.09;4959799;28;20202;-75
2023/09/17 11:36:07;;;;;;;8.55;5.03;;;;;;;29.66;47.39;100287.88;4961554;28;20309;-77
2023/09/17 11:38:36;;;;;;;10.32;5.13;;;;;;;29.59;47.92;100286.53;4963255;28;20207;-77
2023/09/17 11:41:18;;;;;;;10.38;5.13;;;;;;;29.63;47.49;100287.63;4962790;28;20313;-77
2023/09/17 11:43:59;;;;;;;11.27;5.18;;;;;;;29.55;47.94;100284.34;4963275;28;20202;-76
2023/09/17 11:47:04;;;;;;;10.30;4.95;;;;;;;29.63;47.38;100282.19;4959202;28;20210;-74
2023/09/17 11:49:36;;;;;;;11.60;5.05;;;;;;;29.51;47.97;100286.03;4957970;28;20204;-74
2023/09/17 11:52:15;;;;;;;12.80;4.88;;;;;;;29.36;48.53;100277.88;4956940;28;20641;-76
2023/09/17 11:54:51;;;;;;;9.40;4.45;;;;;;;29.33;48.26;100289.31;4968019;28;20221;-74
2023/09/17 11:57:49;;;;;;;7.38;4.45;;;;;;;29.32;47.49;100284.94;4948921;28;20246;-75
2023/09/17 12:00:38;;;;;;;12.73;4.85;;;;;;;29.20;47.90;100278.97;4963764;28;20222;-78
2023/09/17 12:03:11;;;;;;;11.88;5.07;;;;;;;29.09;48.68;100280.06;4965484;28;20234;-78
2023/09/17 12:05:47;;;;;;;14.52;4.90;;;;;;;29.00;48.67;100279.81;4965971;28;20281;-75
2023/09/17 12:09:07;;;;;;;10.77;4.95;;;;;;;28.96;49.11;100273.25;4965596;28;20198;-74
2023/09/17 12:11:54;;;;;;;12.63;4.78;;;;;;;29.19;47.80;100272.69;4938783;28;20251;-75
2023/09/17 12:14:31;;;;;;;10.80;4.78;;;;;;;29.52;47.34;100263.09;4974901;28;20207;-75
2023/09/17 12:17:17;;;;;;;11.43;4.35;;;;;;;29.84;45.94;100257.22;4965014;28;20207;-72
2023/09/17 12:20:49;;;;;;;6.53;4.05;;;;;;;29.95;45.74;100263.47;4966675;28;20206;-75
2023/09/17 12:30:16;;;;;;;11.15;4.32;;;;;;;28.93;48.18;100259.34;4966075;28;20217;-74
2023/09/17 12:32:45;;;;;;;14.77;4.78;;;;;;;28.95;47.73;100255.22;4965731;28;20660;-76
2023/09/17 12:35:15;;;;;;;9.82;4.57;;;;;;;28.91;48.13;100261.53;4963713;28;20207;-75
2023/09/17 12:37:55;;;;;;;15.27;3.92;;;;;;;28.72;48.83;100263.94;4965567;28;20214;-76
2023/09/17 12:40:25;;;;;;;15.88;4.70;;;;;;;28.68;49.56;100260.13;4967752;28;20262;-80
2023/09/17 12:43:10;;;;;;;13.32;4.55;;;;;;;28.85;49.70;100255.25;4964826;28;20282;-73
2023/09/17 12:45:43;;;;;;;10.60;4.75;;;;;;;28.97;48.55;100249.50;4962867;28;20203;-75
2023/09/17 12:48:22;;;;;;;8.32;4.75;;;;;;;28.76;49.33;100262.34;4962700;28;20203;-76
2023/09/17 12:51:06;;;;;;;16.15;5.22;;;;;;;28.61;50.06;100254.94;4965357;28;20205;-69
2023/09/17 12:53:39;;;;;;;10.77;5.38;;;;;;;28.54;50.70;100253.56;4974034;28;20233;-73
2023/09/17 12:56:13;;;;;;;11.73;4.50;;;;;;;28.52;50.47;100255.75;4969671;28;20298;-78
2023/09/17 12:58:48;;;;;;;7.55;4.18;;;;;;;28.56;48.91;100252.22;4976080;28;20274;-76
2023/09/17 13:01:23;;;;;;;7.55;4.50;;;;;;;28.50;49.55;100242.38;4966342;28;20282;-78
2023/09/17 13:06:47;;;;;;;9.65;4.00;;;;;;;28.39;49.97;100235.31;4963623;28;20574;-78
2023/09/17 13:09:33;;;;;;;9.35;4.30;;;;;;;28.33;49.87;100230.91;4967944;28;20210;-76
2023/09/17 13:12:08;;;;;;;9.23;4.40;;;;;;;28.34;50.18;100225.19;4964509;28;20214;-76
2023/09/17 13:14:42;;;;;;;11.80;4.35;;;;;;;28.39;49.63;100227.13;4964688;28;20302;-76
2023/09/17 13:17:11;;;;;;;11.27;4.55;;;;;;;28.24;50.44;100222.44;4964130;28;20214;-72
2023/09/17 13:19:43;;;;;;;11.48;4.57;;;;;;;28.32;50.30;100216.47;4964262;28;20243;-75
2023/09/17 13:22:14;;;;;;;13.25;4.30;;;;;;;28.27;50.37;100207.47;4961653;28;20241;-76
2023/09/17 13:24:49;;;;;;;9.63;4.28;;;;;;;28.39;50.00;100213.50;4967017;28;20206;-79
2023/09/17 13:27:29;;;;;;;11.38;4.50;;;;;;;28.36;50.40;100216.75;4962678;28;20211;-75
2023/09/17 13:30:05;;;;;;;11.07;4.60;;;;;;;28.40;50.38;100220.59;4963819;28;20204;-78
2023/09/17 13:32:36;;;;;;;12.20;4.70;;;;;;;28.38;50.48;100211.84;4967568;28;20199;-71
2023/09/17 18:31:28;;;;;;;20.75;7.60;;;;;;;25.65;60.00;100026.97;4836809;29;20383;-76
2023/09/17 18:49:48;;;;;;;19.10;6.68;;;;;;;25.43;62.03;100023.44;4867727;29;20250;-75
2023/09/17 18:52:16;;;;;;;16.30;6.18;;;;;;;25.41;61.66;100020.19;4957311;28;20738;-78
2023/09/17 18:54:45;;;;;;;12.20;6.53;;;;;;;25.41;62.16;100014.75;5038044;28;20216;-80
2023/09/17 18:57:15;;;;;;;18.95;6.78;;;;;;;25.40;62.43;100015.84;5040000;28;20208;-75
2023/09/17 18:59:44;;;;;;;13.45;6.30;;;;;;;25.39;62.83;100011.47;5042452;28;20208;-79
2023/09/17 19:02:13;;;;;;;18.35;6.47;;;;;;;25.37;63.04;100005.47;5038246;28;20331;-78
2023/09/17 19:04:41;;;;;;;11.98;6.28;;;;;;;25.34;63.22;100006.78;5035829;28;20223;-71
2023/09/17 19:07:11;;;;;;;15.77;6.28;;;;;;;25.32;63.41;100008.16;5035367;28;20200;-71
2023/09/17 19:09:39;;;;;;;16.75;6.53;;;;;;;25.30;63.56;100013.00;5035582;28;20259;-77
2023/09/17 19:12:09;;;;;;;14.63;6.95;;;;;;;25.26;63.54;100006.44;5033860;28;20230;-75
2023/09/17 19:14:37;;;;;;;18.00;6.57;;;;;;;25.24;63.60;100001.28;5033994;28;20258;-79
2023/09/17 19:17:05;;;;;;;14.57;6.53;;;;;;;25.21;64.20;100003.69;5034514;28;20215;-77
2023/09/17 19:19:33;;;;;;;14.82;5.72;;;;;;;25.18;64.15;99998.75;5033764;28;20322;-77
2023/09/17 19:22:08;;;;;;;13.70;5.22;;;;;;;25.16;64.17;100007.16;5037496;28;20828;-75
2023/09/17 19:24:38;;;;;;;11.82;5.10;;;;;;;25.14;64.31;100003.06;5038502;28;21313;-79
2023/09/17 19:27:06;;;;;;;10.80;5.20;;;;;;;25.10;64.22;99998.16;5034999;28;20236;-76
2023/09/17 19:29:34;;;;;;;14.10;5.22;;;;;;;25.06;64.24;99986.19;5035405;28;20223;-75
2023/09/17 19:32:03;;;;;;;20.23;5.05;;;;;;;25.03;64.62;99986.69;5038078;28;20201;-77
2023/09/17 19:34:31;;;;;;;14.57;6.18;;;;;;;25.01;65.28;99982.56;5035978;28;20219;-76
2023/09/17 19:36:59;;;;;;;17.10;6.53;;;;;;;24.98;65.46;99986.59;5037495;28;20208;-77
2023/09/17 19:39:27;;;;;;;18.25;6.35;;;;;;;24.95;65.51;99989.84;5035051;28;20232;-78
2023/09/17 19:41:57;;;;;;;19.77;6.85;;;;;;;24.92;65.49;99984.91;5041178;28;20323;-77
2023/09/17 19:44:25;;;;;;;19.95;7.82;;;;;;;24.89;65.51;99990.81;5037812;28;20213;-76
2023/09/17 19:46:53;;;;;;;16.30;8.77;;;;;;;24.87;65.92;99998.41;5040279;28;20742;-77
2023/09/17 19:49:26;;;;;;;19.25;9.20;;;;;;;24.86;66.10;99995.94;5047086;28;20230;-71
2023/09/17 19:51:54;;;;;;;17.70;8.32;;;;;;;24.83;66.49;99991.81;5046359;28;20215;-76
2023/09/17 19:54:21;;;;;;;17.58;7.05;;;;;;;24.80;66.99;99997.78;5046697;28;20201;-76
2023/09/17 19:56:49;;;;;;;19.45;6.32;;;;;;;24.78;66.71;99986.34;5042276;28;20208;-78
2023/09/17 19:59:18;;;;;;;11.63;6.13;;;;;;;24.75;67.40;99986.84;5038267;28;20224;-76
2023/09/17 20:01:46;;;;;;;15.63;6.13;;;;;;;24.71;67.59;99983.03;5034490;28;20236;-75
2023/09/17 20:04:16;;;;;;;17.95;7.97;;;;;;;24.67;67.66;99977.28;5037861;28;20207;-73
2023/09/17 20:06:44;;;;;;;13.05;6.40;;;;;;;24.67;67.66;99968.31;5034147;28;21009;-76
2023/09/17 20:09:22;;;;;;;19.05;6.97;;;;;;;24.63;68.29;99969.88;5034908;28;20647;-75
2023/09/17 20:11:51;;;;;;;19.02;6.15;;;;;;;24.61;68.06;99970.16;5036448;28;20209;-72
2023/09/17 20:14:20;;;;;;;16.45;5.55;;;;;;;24.59;68.35;99966.06;5038936;28;20326;-77
2023/09/17 20:16:49;;;;;;;19.15;5.22;;;;;;;24.61;67.52;99963.91;5040631;28;20227;-74
2023/09/17 20:19:17;;;;;;;14.05;5.63;;;;;;;24.64;67.42;99966.09;5037787;28;20891;-81
2023/09/17 20:21:45;;;;;;;15.93;6.03;;;;;;;24.63;67.33;99961.75;5040294;28;20334;-75
2023/09/17 20:24:13;;;;;;;19.83;5.13;;;;;;;24.63;67.70;99954.44;5039706;28;20209;-74
2023/09/17 20:26:44;;;;;;;12.93;4.72;;;;;;;24.61;67.70;99956.59;5035333;28;20550;-83
2023/09/17 20:29:12;;;;;;;11.45;5.32;;;;;;;24.58;67.58;99948.16;5035332;28;20207;-79
2023/09/17 21:56:02;;;;;;;19.08;6.38;;;;;;;23.92;71.80;99904.69;4792479;29;20458;-75
